Time;durP1;ratioP1;P1;durP2;ratioP2;P2;SDS_P1;SDS_P2;PMS_P1;PMS_P2;Temp;Humidity;BMP_temperature;BMP_pressure;BME280_temperature;BME280_humidity;BME280_pressure;Samples;Min_cycle;Max_cycle;Signal;HPM_P1;HPM_P2
2021/08/03 00:14:14;;;;;;;9.65;5.40;;;32.60;92.80;;;;;;5009503;28;20229;-90
2021/08/03 00:16:46;;;;;;;6.15;5.53;;;32.50;91.90;;;;;;5020049;28;20213;-91
2021/08/03 00:19:31;;;;;;;6.32;5.15;;;32.40;91.40;;;;;;5054210;23;20238;-92
2021/08/03 00:22:02;;;;;;;6.28;5.68;;;32.60;92.50;;;;;;5429571;23;20730;-93
2021/08/03 00:24:36;;;;;;;6.20;5.57;;;32.60;91.50;;;;;;5026931;28;20295;-90
2021/08/03 00:27:09;;;;;;;6.38;5.57;;;32.70;91.10;;;;;;5021936;28;20296;-91
2021/08/03 00:29:42;;;;;;;6.20;5.60;;;32.80;90.60;;;;;;5022252;28;20221;-90
2021/08/03 00:32:14;;;;;;;6.05;5.43;;;32.70;90.80;;;;;;5023310;28;20216;-90
2021/08/03 00:34:45;;;;;;;6.03;5.53;;;32.70;91.10;;;;;;5005199;28;20193;-91
2021/08/03 00:37:18;;;;;;;7.75;4.78;;;32.70;91.90;;;;;;5024116;28;20214;-91
2021/08/03 00:39:50;;;;;;;5.97;5.47;;;32.60;91.70;;;;;;5023798;28;20233;-90
2021/08/03 00:42:21;;;;;;;5.93;5.43;;;32.70;91.50;;;;;;5020593;28;20256;-91
2021/08/03 00:44:57;;;;;;;6.38;5.88;;;32.60;91.20;;;;;;5019774;28;20289;-91
2021/08/03 00:47:30;;;;;;;6.70;6.10;;;32.40;91.90;;;;;;5019900;28;20244;-90
2021/08/03 00:50:01;;;;;;;6.72;6.13;;;32.40;92.20;;;;;;5027509;28;20267;-91
2021/08/03 00:52:33;;;;;;;7.18;5.97;;;32.30;92.20;;;;;;5018678;28;20232;-91
2021/08/03 00:55:05;;;;;;;7.85;6.20;;;32.30;92.70;;;;;;5019099;28;20308;-90
2021/08/03 00:57:36;;;;;;;7.03;6.43;;;32.30;93.10;;;;;;5018708;28;20255;-91
2021/08/03 01:00:11;;;;;;;7.70;6.90;;;32.30;92.80;;;;;;5018285;28;20264;-93
2021/08/03 01:02:46;;;;;;;7.90;7.13;;;32.20;93.10;;;;;;5024414;28;20237;-92
2021/08/03 01:05:23;;;;;;;7.82;7.03;;;32.20;92.60;;;;;;5037197;28;20252;-90
2021/08/03 01:08:06;;;;;;;7.60;6.90;;;32.00;93.30;;;;;;5027116;28;20206;-90
2021/08/03 01:10:52;;;;;;;8.95;8.15;;;32.00;92.20;;;;;;5028655;28;20708;-91
2021/08/03 01:13:32;;;;;;;9.30;8.40;;;31.80;91.60;;;;;;5025155;28;20204;-92
2021/08/03 01:16:12;;;;;;;11.30;10.30;;;31.80;92.00;;;;;;5019073;28;20244;-92
2021/08/03 01:18:51;;;;;;;11.60;10.40;;;32.20;90.70;;;;;;5024088;28;20260;-92
2021/08/03 01:24:54;;;;;;;14.52;13.20;;;32.40;91.50;;;;;;5029077;28;20225;-91
2021/08/03 01:30:27;;;;;;;9.55;8.65;;;32.80;91.90;;;;;;5021063;28;20225;-92
2021/08/03 01:33:04;;;;;;;11.95;10.45;;;32.80;92.90;;;;;;5031678;28;20210;-92
2021/08/03 01:38:12;;;;;;;17.48;14.60;;;32.90;92.00;;;;;;5010582;28;20224;-91
2021/08/03 01:43:36;;;;;;;20.13;18.13;;;32.60;92.50;;;;;;5004606;28;20225;-91
2021/08/03 01:46:32;;;;;;;21.33;19.25;;;32.60;92.90;;;;;;5009159;28;20202;-92
2021/08/03 01:49:05;;;;;;;19.88;17.88;;;32.70;92.00;;;;;;4993389;28;20207;-92
2021/08/03 01:51:37;;;;;;;21.65;19.65;;;32.60;92.20;;;;;;4979455;28;20226;-91
2021/08/03 01:54:09;;;;;;;22.38;20.35;;;32.40;92.70;;;;;;4979611;28;20737;-91
2021/08/03 01:56:45;;;;;;;22.02;19.92;;;32.30;92.70;;;;;;4992786;28;20242;-91
2021/08/03 01:59:17;;;;;;;23.13;21.02;;;31.70;92.80;;;;;;4992616;28;20242;-91
2021/08/03 02:02:10;;;;;;;24.42;21.90;;;31.40;93.20;;;;;;4992050;28;20209;-92
2021/08/03 02:04:47;;;;;;;23.30;21.10;;;31.30;93.50;;;;;;4988933;28;20240;-91
2021/08/03 02:07:33;;;;;;;21.02;18.95;;;31.30;93.10;;;;;;4970990;29;20235;-91
2021/08/03 02:10:05;;;;;;;19.52;17.63;;;30.90;93.80;;;;;;4974351;28;20215;-91
2021/08/03 02:12:38;;;;;;;16.70;15.10;;;30.20;92.90;;;;;;4955885;29;20204;-91
2021/08/03 02:15:13;;;;;;;15.17;13.63;;;29.70;91.90;;;;;;4972420;28;20215;-92
2021/08/03 02:17:47;;;;;;;14.90;13.50;;;29.00;92.00;;;;;;4974179;29;20234;-91
2021/08/03 02:20:20;;;;;;;15.77;14.17;;;28.70;91.10;;;;;;4974734;29;20226;-91
2021/08/03 02:55:26;;;;;;;8.23;7.33;;;26.30;91.00;;;;;;5485460;23;20237;-87
2021/08/03 02:58:05;;;;;;;7.93;7.23;;;26.20;91.00;;;;;;5012673;28;20218;-91
2021/08/03 03:00:43;;;;;;;8.00;7.10;;;26.10;91.30;;;;;;5011721;28;20236;-92
2021/08/03 03:03:17;;;;;;;7.47;6.77;;;26.00;91.80;;;;;;4989114;28;20203;-91
2021/08/03 03:05:54;;;;;;;7.87;6.83;;;25.90;92.50;;;;;;4992908;28;20215;-91
2021/08/03 03:08:28;;;;;;;10.13;6.70;;;25.80;91.80;;;;;;4994076;28;20213;-91
2021/08/03 03:11:12;;;;;;;7.47;6.77;;;25.70;92.40;;;;;;4993321;28;20222;-92
2021/08/03 03:16:37;;;;;;;7.27;6.57;;;25.60;92.10;;;;;;4990598;28;20214;-91
2021/08/03 03:19:11;;;;;;;7.63;6.77;;;25.50;92.20;;;;;;4990380;28;20210;-91
2021/08/03 03:21:45;;;;;;;7.03;6.43;;;25.40;92.40;;;;;;4991312;28;20210;-91
2021/08/03 03:24:27;;;;;;;7.17;6.47;;;25.30;92.10;;;;;;4995515;28;20228;-92
2021/08/03 03:27:06;;;;;;;8.33;7.50;;;25.20;92.20;;;;;;4994710;28;20241;-90
2021/08/03 03:29:42;;;;;;;7.23;6.20;;;25.10;92.50;;;;;;4992747;28;20233;-91
2021/08/03 03:32:13;;;;;;;11.23;7.20;;;25.00;92.70;;;;;;4992470;28;20203;-91
2021/08/03 03:34:54;;;;;;;8.47;6.83;;;24.80;93.00;;;;;;4987791;28;20206;-90
2021/08/03 03:37:29;;;;;;;8.47;7.00;;;24.70;93.90;;;;;;4993259;28;20226;-91
2021/08/03 03:40:04;;;;;;;8.83;6.63;;;24.60;94.60;;;;;;4994179;28;20282;-92
2021/08/03 03:45:38;;;;;;;7.33;6.70;;;24.30;95.40;;;;;;4981501;28;20314;-91
2021/08/03 03:48:14;;;;;;;8.23;6.73;;;24.20;95.40;;;;;;4982457;28;20707;-91
2021/08/03 03:50:50;;;;;;;6.83;6.13;;;24.10;95.30;;;;;;4981724;28;20211;-91
2021/08/03 03:53:23;;;;;;;7.33;6.57;;;24.00;96.10;;;;;;4982579;28;20207;-91
2021/08/03 03:55:55;;;;;;;8.03;6.93;;;23.90;96.20;;;;;;4982908;28;20222;-91
2021/08/03 03:58:35;;;;;;;7.43;6.67;;;23.70;96.40;;;;;;4988639;28;20277;-91
2021/08/03 04:01:07;;;;;;;7.43;6.50;;;23.60;96.70;;;;;;4993119;28;20295;-92
2021/08/03 04:03:39;;;;;;;7.33;6.53;;;23.50;97.40;;;;;;4966247;28;20270;-91
2021/08/03 04:06:12;;;;;;;8.20;6.63;;;23.40;97.90;;;;;;4983089;28;20241;-91
2021/08/03 04:08:43;;;;;;;6.77;6.17;;;23.30;98.30;;;;;;4983206;28;20210;-91
2021/08/03 04:11:16;;;;;;;7.00;6.30;;;23.20;98.80;;;;;;4982238;28;20214;-91
2021/08/03 04:14:02;;;;;;;7.60;6.60;;;23.10;99.50;;;;;;4997618;28;20191;-90
2021/08/03 04:16:39;;;;;;;8.20;6.20;;;23.00;99.90;;;;;;4998148;28;20207;-89
2021/08/03 04:19:11;;;;;;;6.50;5.23;;;22.80;99.90;;;;;;4986310;28;20270;-91
2021/08/03 04:24:30;;;;;;;7.77;5.00;;;22.60;99.90;;;;;;4989447;28;20214;-91
2021/08/03 04:27:04;;;;;;;7.20;4.60;;;22.40;99.90;;;;;;4990337;28;20222;-91
2021/08/03 04:29:40;;;;;;;6.63;4.60;;;22.30;99.90;;;;;;4987486;28;20214;-91
2021/08/03 04:32:11;;;;;;;6.70;4.33;;;22.10;99.90;;;;;;4985831;28;20238;-91
2021/08/03 04:34:45;;;;;;;6.73;4.40;;;22.00;99.90;;;;;;4988009;28;20207;-91
2021/08/03 04:37:17;;;;;;;6.37;4.40;;;21.90;99.90;;;;;;4976824;28;20230;-91
2021/08/03 04:39:52;;;;;;;4.80;4.37;;;21.80;99.90;;;;;;4976265;28;20215;-91
2021/08/03 04:42:24;;;;;;;5.03;4.20;;;21.70;99.90;;;;;;4993769;28;20229;-91
2021/08/03 04:44:58;;;;;;;5.30;4.30;;;21.60;99.90;;;;;;4992966;28;20203;-92
2021/08/03 04:47:34;;;;;;;6.07;5.30;;;21.60;99.90;;;;;;4976428;28;20294;-91
2021/08/03 04:50:07;;;;;;;8.83;5.17;;;21.50;99.90;;;;;;4993290;28;20295;-92
2021/08/03 04:52:38;;;;;;;6.93;4.90;;;21.50;99.90;;;;;;4992198;28;20214;-91
2021/08/03 04:55:14;;;;;;;5.47;4.80;;;21.40;99.90;;;;;;4973111;28;20278;-90
2021/08/03 04:57:47;;;;;;;9.27;5.50;;;21.30;99.90;;;;;;4976254;28;20266;-90
2021/08/03 05:03:09;;;;;;;6.67;5.03;;;21.20;99.90;;;;;;5102632;23;20253;-92
2021/08/03 05:05:41;;;;;;;8.60;5.77;;;21.20;99.90;;;;;;5016858;28;20202;-90
2021/08/03 05:08:12;;;;;;;8.67;6.00;;;21.10;99.90;;;;;;5018768;28;20199;-88
2021/08/03 05:10:44;;;;;;;8.80;6.00;;;21.00;99.90;;;;;;5017428;28;20191;-90
2021/08/03 05:13:16;;;;;;;7.40;5.20;;;20.90;99.90;;;;;;5008947;28;20279;-90
2021/08/03 05:15:48;;;;;;;7.33;5.23;;;20.90;99.90;;;;;;5015011;28;20214;-89
2021/08/03 05:18:23;;;;;;;6.13;4.60;;;20.80;99.90;;;;;;5018334;28;20217;-90
2021/08/03 05:20:54;;;;;;;5.60;4.50;;;20.70;99.90;;;;;;5016895;28;20233;-89
2021/08/03 05:23:26;;;;;;;6.73;4.73;;;20.60;99.90;;;;;;4996056;28;20261;-89
2021/08/03 05:25:58;;;;;;;6.17;4.40;;;20.60;99.90;;;;;;5012055;28;20233;-92
2021/08/03 05:28:30;;;;;;;4.60;3.93;;;20.50;99.90;;;;;;5011446;28;20233;-92
2021/08/03 05:31:01;;;;;;;5.67;4.63;;;20.40;99.90;;;;;;5006862;28;20213;-91
2021/08/03 05:33:37;;;;;;;6.13;4.63;;;20.40;99.90;;;;;;4999519;28;20293;-90
2021/08/03 05:36:09;;;;;;;7.63;4.80;;;20.30;99.90;;;;;;5035936;23;20218;-89
2021/08/03 05:38:42;;;;;;;6.50;4.73;;;20.30;99.90;;;;;;5006991;28;20295;-90
2021/08/03 05:41:14;;;;;;;6.20;4.90;;;20.30;99.90;;;;;;5010577;28;20226;-90
2021/08/03 05:43:47;;;;;;;6.37;5.13;;;20.20;99.90;;;;;;4992257;28;20214;-90
2021/08/03 05:46:19;;;;;;;6.83;4.53;;;20.20;99.90;;;;;;5006608;28;20217;-90
2021/08/03 05:48:52;;;;;;;6.63;4.87;;;20.20;99.90;;;;;;4998865;28;20280;-90
2021/08/03 05:51:24;;;;;;;6.10;5.07;;;20.10;99.90;;;;;;4980620;28;20203;-90
2021/08/03 05:53:55;;;;;;;7.50;5.23;;;20.10;99.90;;;;;;5002229;28;20234;-90
2021/08/03 05:56:26;;;;;;;8.27;5.20;;;20.10;99.90;;;;;;4996833;28;20660;-90
2021/08/03 05:58:58;;;;;;;7.63;4.77;;;20.00;99.90;;;;;;4982498;28;20241;-90
2021/08/03 06:01:29;;;;;;;8.30;5.27;;;20.10;99.90;;;;;;5012000;28;20328;-90
2021/08/03 06:04:03;;;;;;;7.00;4.70;;;20.00;99.90;;;;;;5018443;28;20305;-91
2021/08/03 06:06:42;;;;;;;7.13;5.00;;;20.10;99.90;;;;;;5018385;28;20241;-90
2021/08/03 06:09:18;;;;;;;8.87;4.80;;;20.10;99.90;;;;;;5018419;28;20216;-90
2021/08/03 06:12:05;;;;;;;6.17;4.60;;;20.10;99.90;;;;;;5020298;28;20220;-91
2021/08/03 06:14:40;;;;;;;7.27;4.43;;;20.00;99.90;;;;;;5000999;28;20236;-91
2021/08/03 06:17:15;;;;;;;5.93;4.20;;;20.00;99.90;;;;;;5017370;28;20213;-90
2021/08/03 06:19:52;;;;;;;6.10;4.93;;;19.90;99.90;;;;;;5018065;28;20233;-91
2021/08/03 06:22:23;;;;;;;6.47;5.07;;;19.90;99.90;;;;;;4963934;28;20265;-91
2021/08/03 06:24:54;;;;;;;9.07;4.17;;;19.90;99.90;;;;;;4979506;28;20206;-91
2021/08/03 06:27:27;;;;;;;6.30;4.43;;;19.90;99.90;;;;;;4981766;28;20238;-90
2021/08/03 06:30:01;;;;;;;6.47;4.40;;;19.80;99.90;;;;;;4980674;28;20238;-91
2021/08/03 06:32:33;;;;;;;8.73;4.43;;;19.80;99.90;;;;;;4982488;28;20301;-92
2021/08/03 06:35:11;;;;;;;6.50;4.67;;;19.70;99.90;;;;;;4986934;28;20210;-88
2021/08/03 06:37:48;;;;;;;5.13;4.53;;;19.70;99.90;;;;;;4990864;28;20207;-90
2021/08/03 06:40:20;;;;;;;5.33;3.90;;;19.70;99.90;;;;;;4989190;28;20214;-89
2021/08/03 06:42:56;;;;;;;7.40;3.70;;;19.70;99.90;;;;;;4983547;28;20407;-88
2021/08/03 06:45:34;;;;;;;4.57;4.13;;;19.60;99.90;;;;;;4981457;28;20258;-90
2021/08/03 06:48:07;;;;;;;6.23;4.60;;;19.60;99.90;;;;;;4981927;28;20237;-89
2021/08/03 06:50:43;;;;;;;5.53;4.03;;;19.60;99.90;;;;;;4980140;28;20269;-91
2021/08/03 06:53:16;;;;;;;7.27;4.30;;;19.60;99.90;;;;;;4980691;28;20214;-92
2021/08/03 06:55:50;;;;;;;6.40;4.43;;;19.50;99.90;;;;;;4979380;28;20245;-92
2021/08/03 06:58:30;;;;;;;5.10;3.93;;;19.50;99.90;;;;;;4979440;28;20207;-89
2021/08/03 07:01:04;;;;;;;6.87;4.40;;;19.50;99.90;;;;;;4977817;28;20269;-91
2021/08/03 07:03:45;;;;;;;7.50;4.20;;;19.50;99.90;;;;;;4981115;28;20230;-91
2021/08/03 07:09:13;;;;;;;5.73;4.20;;;19.40;99.90;;;;;;5009487;28;20684;-90
2021/08/03 07:11:45;;;;;;;8.40;3.97;;;19.30;99.90;;;;;;5001382;28;20206;-91
2021/08/03 07:14:19;;;;;;;5.80;3.90;;;19.30;99.90;;;;;;4997736;28;20210;-91
2021/08/03 07:16:52;;;;;;;6.17;3.80;;;19.20;99.90;;;;;;4997375;28;20217;-91
2021/08/03 07:19:24;;;;;;;6.53;4.27;;;19.10;99.90;;;;;;4997397;28;20225;-92
2021/08/03 07:21:58;;;;;;;6.13;3.90;;;19.10;99.90;;;;;;4997001;28;20234;-91
2021/08/03 07:24:31;;;;;;;5.13;3.70;;;19.10;99.90;;;;;;4999777;28;20233;-91
2021/08/03 07:27:03;;;;;;;5.13;3.83;;;19.00;99.90;;;;;;5004745;28;20256;-91
2021/08/03 07:29:35;;;;;;;5.17;3.87;;;18.90;99.90;;;;;;5011230;28;20213;-90
2021/08/03 07:32:10;;;;;;;5.57;3.67;;;18.90;99.90;;;;;;4995189;28;20230;-90
2021/08/03 07:34:42;;;;;;;7.27;4.00;;;18.80;99.90;;;;;;4986480;28;20663;-91
2021/08/03 07:37:15;;;;;;;5.53;3.50;;;18.90;99.90;;;;;;5004869;28;20222;-92
2021/08/03 07:39:46;;;;;;;3.93;3.33;;;18.80;99.90;;;;;;4998020;28;20215;-90
2021/08/03 07:42:17;;;;;;;4.47;3.40;;;18.70;99.90;;;;;;4980532;28;20268;-90
2021/08/03 07:44:48;;;;;;;4.97;3.90;;;18.70;99.90;;;;;;4997199;28;20630;-90
2021/08/03 07:47:21;;;;;;;5.27;3.73;;;18.70;99.90;;;;;;5003146;28;20195;-91
2021/08/03 07:49:52;;;;;;;6.47;3.90;;;18.60;99.90;;;;;;4988420;28;20543;-91
2021/08/03 07:52:25;;;;;;;5.77;3.60;;;18.50;99.90;;;;;;4998792;28;20296;-91
2021/08/03 07:54:57;;;;;;;6.43;3.20;;;18.50;99.90;;;;;;5020774;28;20202;-90
2021/08/03 07:57:28;;;;;;;4.23;3.10;;;18.50;99.90;;;;;;5022587;28;20214;-90
2021/08/03 07:59:59;;;;;;;5.37;3.80;;;18.50;99.90;;;;;;5016619;28;20225;-91
2021/08/03 08:02:31;;;;;;;4.00;3.27;;;18.40;99.90;;;;;;5015969;28;20257;-91
2021/08/03 08:05:03;;;;;;;4.87;3.40;;;18.40;99.90;;;;;;5014392;28;20209;-91
2021/08/03 08:07:35;;;;;;;5.93;3.07;;;18.40;99.90;;;;;;4998218;28;20238;-91
2021/08/03 08:10:08;;;;;;;4.53;3.13;;;18.40;99.90;;;;;;5002555;28;20281;-94
2021/08/03 08:12:40;;;;;;;7.57;4.13;;;18.40;99.90;;;;;;5000489;28;20213;-91
2021/08/03 08:15:13;;;;;;;6.37;3.00;;;18.30;99.90;;;;;;5000000;28;20206;-91
2021/08/03 08:17:45;;;;;;;4.73;3.20;;;18.30;99.90;;;;;;5000840;28;20409;-91
2021/08/03 08:20:16;;;;;;;5.67;2.93;;;18.30;99.90;;;;;;4999476;28;20225;-91
2021/08/03 08:22:49;;;;;;;6.00;2.83;;;18.30;99.90;;;;;;4999691;28;20269;-90
2021/08/03 08:25:21;;;;;;;4.13;2.80;;;18.30;99.90;;;;;;5000108;28;20210;-91
2021/08/03 08:27:52;;;;;;;5.57;2.87;;;18.20;99.90;;;;;;4999831;28;20274;-91
2021/08/03 08:30:23;;;;;;;5.27;3.20;;;18.20;99.90;;;;;;5001881;28;20238;-90
2021/08/03 08:32:55;;;;;;;4.30;2.57;;;18.20;99.90;;;;;;5002352;28;20206;-91
2021/08/03 08:35:38;;;;;;;6.10;2.80;;;18.20;99.90;;;;;;5001855;28;20249;-90
2021/08/03 08:38:12;;;;;;;5.57;2.80;;;18.20;99.90;;;;;;4999830;28;20225;-91
2021/08/03 08:40:46;;;;;;;5.70;3.20;;;18.10;99.90;;;;;;4985640;28;20214;-90
2021/08/03 08:43:19;;;;;;;3.53;2.53;;;18.10;99.90;;;;;;5000491;28;20320;-90
2021/08/03 08:45:50;;;;;;;4.87;2.80;;;18.10;99.90;;;;;;4999616;28;20325;-90
2021/08/03 08:48:22;;;;;;;5.20;2.97;;;18.00;99.90;;;;;;4999753;28;20289;-90
2021/08/03 08:50:57;;;;;;;4.23;3.20;;;18.00;99.90;;;;;;4998645;28;20222;-91
2021/08/03 08:53:34;;;;;;;9.57;3.10;;;17.90;99.90;;;;;;4999205;28;20268;-90
2021/08/03 08:56:06;;;;;;;5.10;2.90;;;17.90;99.90;;;;;;4998825;28;20206;-90
2021/08/03 08:58:38;;;;;;;4.43;2.87;;;17.90;99.90;;;;;;4999419;28;20226;-90
2021/08/03 09:01:11;;;;;;;5.03;3.23;;;17.80;99.90;;;;;;4998101;28;20293;-90
2021/08/03 09:03:43;;;;;;;4.63;2.83;;;17.80;99.90;;;;;;4998220;28;20237;-89
2021/08/03 09:06:20;;;;;;;4.97;2.70;;;17.80;99.90;;;;;;4990440;28;20266;-90
2021/08/03 09:08:53;;;;;;;4.07;2.90;;;17.80;99.90;;;;;;4979829;28;20214;-90
2021/08/03 09:11:25;;;;;;;3.87;2.77;;;17.80;99.90;;;;;;4979699;28;20203;-90
2021/08/03 09:14:19;;;;;;;5.23;2.80;;;17.80;99.90;;;;;;4979851;28;20214;-90
2021/08/03 09:16:52;;;;;;;5.70;3.10;;;17.70;99.90;;;;;;4979508;28;20233;-90
2021/08/03 09:19:33;;;;;;;4.40;2.93;;;17.70;99.90;;;;;;4978671;28;20286;-90
2021/08/03 09:22:17;;;;;;;5.53;3.00;;;17.70;99.90;;;;;;4978682;28;20274;-91
2021/08/03 09:24:52;;;;;;;5.20;2.60;;;17.60;99.90;;;;;;4979227;28;20247;-89
2021/08/03 09:27:34;;;;;;;4.40;2.67;;;17.60;99.90;;;;;;4980233;28;20614;-90
2021/08/03 09:30:07;;;;;;;6.73;3.23;;;17.70;99.90;;;;;;4979900;28;20207;-90
2021/08/03 09:32:40;;;;;;;5.63;2.70;;;17.60;99.90;;;;;;4978960;28;20234;-89
2021/08/03 09:35:14;;;;;;;3.20;2.40;;;17.60;99.90;;;;;;4979068;28;20238;-89
2021/08/03 09:37:46;;;;;;;6.90;2.80;;;17.60;99.90;;;;;;4981030;28;20222;-89
2021/08/03 09:40:28;;;;;;;5.70;2.90;;;17.60;99.90;;;;;;4978453;28;20279;-90
2021/08/03 09:43:04;;;;;;;4.57;2.50;;;17.50;99.90;;;;;;4980124;28;20689;-90
2021/08/03 09:45:57;;;;;;;5.20;2.67;;;17.50;99.90;;;;;;5005952;28;20205;-90
2021/08/03 09:48:30;;;;;;;4.63;2.33;;;17.50;99.90;;;;;;5019260;28;20252;-90
2021/08/03 09:51:07;;;;;;;5.13;2.47;;;17.40;99.90;;;;;;5021002;28;20247;-90
2021/08/03 09:53:43;;;;;;;3.73;2.13;;;17.50;99.90;;;;;;5012917;28;20264;-89
2021/08/03 09:56:19;;;;;;;7.27;2.90;;;17.40;99.90;;;;;;5037389;28;20206;-90
2021/08/03 09:58:56;;;;;;;6.53;2.43;;;17.40;99.90;;;;;;5037356;28;20217;-90
2021/08/03 10:01:30;;;;;;;4.20;2.03;;;17.40;99.90;;;;;;5028004;28;20213;-90
2021/08/03 10:04:04;;;;;;;4.27;2.37;;;17.30;99.90;;;;;;5025202;28;20236;-89
2021/08/03 10:06:36;;;;;;;5.43;2.40;;;17.30;99.90;;;;;;5005738;28;20222;-90
2021/08/03 10:09:08;;;;;;;3.70;1.90;;;17.30;99.90;;;;;;5000091;28;20644;-90
2021/08/03 10:11:43;;;;;;;4.30;2.30;;;17.20;99.90;;;;;;5000183;28;20241;-90
2021/08/03 10:14:30;;;;;;;4.67;2.33;;;17.20;99.90;;;;;;5000533;28;20268;-90
2021/08/03 10:17:00;;;;;;;5.80;2.40;;;17.20;99.90;;;;;;5000148;28;20228;-90
2021/08/03 10:19:36;;;;;;;6.03;2.63;;;17.10;99.90;;;;;;5013079;28;20206;-89
2021/08/03 10:22:28;;;;;;;4.60;2.10;;;17.10;99.90;;;;;;5007524;28;20245;-90
2021/08/03 10:25:02;;;;;;;7.10;2.63;;;17.10;99.90;;;;;;5005912;28;20237;-90
2021/08/03 10:27:49;;;;;;;5.97;2.30;;;17.10;99.90;;;;;;5007628;28;20200;-89
2021/08/03 10:30:37;;;;;;;6.03;2.57;;;17.10;99.90;;;;;;5001400;28;20206;-90
2021/08/03 10:33:11;;;;;;;6.33;2.23;;;17.00;99.90;;;;;;4998730;28;20261;-90
2021/08/03 10:35:47;;;;;;;3.87;2.20;;;16.90;99.90;;;;;;5002168;28;20221;-90
2021/08/03 10:38:20;;;;;;;5.87;2.43;;;16.90;99.90;;;;;;5016655;28;20205;-88
2021/08/03 10:41:20;;;;;;;5.30;2.20;;;16.90;99.90;;;;;;5014025;28;20202;-90
2021/08/03 10:43:53;;;;;;;6.40;1.93;;;16.80;99.90;;;;;;5006461;28;20241;-90
2021/08/03 10:46:43;;;;;;;5.27;2.30;;;16.90;99.90;;;;;;5004205;28;20625;-89
2021/08/03 10:49:14;;;;;;;6.27;2.10;;;16.90;99.90;;;;;;5003364;28;20234;-90
2021/08/03 10:51:47;;;;;;;5.17;2.40;;;16.90;99.90;;;;;;4996952;28;20305;-89
2021/08/03 10:54:21;;;;;;;5.53;2.23;;;16.80;99.90;;;;;;4997387;28;20245;-90
2021/08/03 10:57:20;;;;;;;5.40;2.27;;;16.90;99.90;;;;;;5006371;28;20642;-91
2021/08/03 11:00:06;;;;;;;5.93;2.40;;;16.80;99.90;;;;;;4997823;28;20672;-90
2021/08/03 11:02:50;;;;;;;6.00;2.00;;;16.80;99.90;;;;;;4997533;28;20290;-90
2021/08/03 11:05:32;;;;;;;4.40;1.97;;;16.80;99.90;;;;;;4997991;28;20206;-90
2021/08/03 11:08:50;;;;;;;5.33;2.17;;;16.80;99.90;;;;;;4998392;28;20571;-91
2021/08/03 11:11:25;;;;;;;5.87;2.37;;;16.80;99.90;;;;;;4993585;28;20234;-88
2021/08/03 11:13:57;;;;;;;3.90;1.97;;;16.80;99.90;;;;;;4999228;28;20300;-90
2021/08/03 11:16:57;;;;;;;6.80;2.30;;;16.70;99.90;;;;;;4980304;28;20214;-91
2021/08/03 11:19:37;;;;;;;6.57;2.20;;;16.70;99.90;;;;;;4982136;28;20231;-90
2021/08/03 11:22:09;;;;;;;5.33;2.20;;;16.70;99.90;;;;;;4998392;28;20210;-90
2021/08/03 11:24:47;;;;;;;3.40;2.10;;;16.60;99.90;;;;;;4996779;28;20237;-90
2021/08/03 11:27:29;;;;;;;5.23;2.10;;;16.60;99.90;;;;;;5001675;28;20217;-90
2021/08/03 11:30:09;;;;;;;6.03;2.20;;;16.60;99.90;;;;;;4997132;28;20237;-89
2021/08/03 11:32:42;;;;;;;7.67;2.47;;;16.60;99.90;;;;;;4979654;28;20261;-89
2021/08/03 11:35:25;;;;;;;5.43;2.47;;;16.60;99.90;;;;;;4976986;28;20269;-90
2021/08/03 11:37:56;;;;;;;4.33;2.20;;;16.50;99.90;;;;;;4978992;28;20677;-88
2021/08/03 11:40:28;;;;;;;4.27;1.83;;;16.50;99.90;;;;;;4988088;28;20631;-90
2021/08/03 11:43:00;;;;;;;5.43;2.27;;;16.50;99.90;;;;;;5014730;28;20256;-89
2021/08/03 11:45:34;;;;;;;4.80;1.90;;;16.50;99.90;;;;;;5005114;28;20271;-89
2021/08/03 11:48:18;;;;;;;4.23;2.17;;;16.50;99.90;;;;;;5021170;28;20559;-90
2021/08/03 11:50:50;;;;;;;5.30;2.27;;;16.50;99.90;;;;;;5020522;28;20216;-89
2021/08/03 11:53:23;;;;;;;6.80;1.93;;;16.50;99.90;;;;;;5021107;28;20209;-89
2021/08/03 11:55:56;;;;;;;6.97;1.97;;;16.50;99.90;;;;;;5020242;28;20237;-89
2021/08/03 11:58:28;;;;;;;4.40;2.00;;;16.60;99.90;;;;;;5020908;28;20240;-90
2021/08/03 12:01:16;;;;;;;6.97;2.13;;;16.50;99.90;;;;;;5020274;28;20209;-90
2021/08/03 12:03:50;;;;;;;5.20;2.20;;;16.50;99.90;;;;;;5020126;28;20324;-90
2021/08/03 12:06:22;;;;;;;5.23;1.97;;;16.50;99.90;;;;;;5020283;28;20205;-90
2021/08/03 12:08:55;;;;;;;4.57;2.23;;;16.50;99.90;;;;;;5002639;28;20202;-90
2021/08/03 12:11:35;;;;;;;6.83;2.27;;;16.50;99.90;;;;;;5020318;28;20548;-90
2021/08/03 12:14:10;;;;;;;6.33;2.30;;;16.50;99.90;;;;;;5002860;28;20723;-91
2021/08/03 12:16:43;;;;;;;3.93;2.40;;;16.50;99.90;;;;;;5022684;28;20205;-91
2021/08/03 12:19:31;;;;;;;5.63;2.33;;;16.40;99.90;;;;;;5020374;28;20271;-91
2021/08/03 12:22:02;;;;;;;4.43;2.10;;;16.40;99.90;;;;;;5020417;28;20252;-90
2021/08/03 12:24:37;;;;;;;6.97;2.83;;;16.40;99.90;;;;;;5032611;28;20271;-90
2021/08/03 12:27:12;;;;;;;7.33;2.60;;;16.40;99.90;;;;;;5005805;28;20536;-90
2021/08/03 12:29:43;;;;;;;4.50;2.33;;;16.40;99.90;;;;;;5004665;28;20304;-90
2021/08/03 12:32:14;;;;;;;6.00;2.50;;;16.50;99.90;;;;;;5021361;28;20236;-89
2021/08/03 12:34:49;;;;;;;7.50;2.50;;;16.40;99.90;;;;;;5005370;28;20198;-89
2021/08/03 12:37:35;;;;;;;6.30;2.43;;;16.40;99.90;;;;;;4998462;28;20255;-90
2021/08/03 12:40:07;;;;;;;5.30;2.53;;;16.50;99.90;;;;;;4999639;28;20245;-94
2021/08/03 12:42:49;;;;;;;6.93;2.27;;;16.40;99.90;;;;;;4999458;28;20283;-90
2021/08/03 12:45:22;;;;;;;5.87;2.73;;;16.30;99.90;;;;;;5007764;28;20234;-90
2021/08/03 12:47:55;;;;;;;5.43;2.47;;;16.30;99.90;;;;;;4982955;28;20210;-90
2021/08/03 12:50:28;;;;;;;3.73;2.13;;;16.20;99.90;;;;;;4998641;28;20274;-90
2021/08/03 12:53:02;;;;;;;4.13;2.53;;;16.20;99.90;;;;;;4998627;28;20213;-90
2021/08/03 12:55:42;;;;;;;5.50;2.07;;;16.20;99.90;;;;;;4998785;28;20297;-90
2021/08/03 12:58:13;;;;;;;5.87;2.43;;;16.20;99.90;;;;;;5004135;28;20214;-90
2021/08/03 13:00:45;;;;;;;3.87;2.20;;;16.20;99.90;;;;;;5002328;28;20215;-90
2021/08/03 13:03:17;;;;;;;6.83;2.50;;;16.20;99.90;;;;;;5009129;28;20305;-90
2021/08/03 13:05:50;;;;;;;5.60;2.47;;;16.20;99.90;;;;;;5000864;28;20715;-90
2021/08/03 13:08:22;;;;;;;8.10;2.93;;;16.10;99.90;;;;;;4999605;28;20248;-91
2021/08/03 13:10:56;;;;;;;4.77;2.70;;;16.20;99.90;;;;;;5001047;28;20281;-91
2021/08/03 13:13:27;;;;;;;8.53;2.70;;;16.20;99.90;;;;;;5001361;28;20664;-90
2021/08/03 13:16:01;;;;;;;7.77;2.40;;;16.20;99.90;;;;;;5001051;28;20244;-90
2021/08/03 13:18:33;;;;;;;4.50;2.47;;;16.30;99.90;;;;;;4999525;28;20627;-91
2021/08/03 13:21:08;;;;;;;5.97;2.80;;;16.30;99.90;;;;;;4999635;28;20242;-90
2021/08/03 13:23:40;;;;;;;6.97;2.50;;;16.30;99.90;;;;;;4982059;28;20210;-91
2021/08/03 13:26:11;;;;;;;5.10;2.67;;;16.40;99.90;;;;;;4999537;28;20241;-90
2021/08/03 13:28:42;;;;;;;9.57;2.70;;;16.40;99.90;;;;;;5000526;28;20314;-90
2021/08/03 13:31:13;;;;;;;7.97;2.93;;;16.40;99.90;;;;;;4998262;28;20238;-89
2021/08/03 13:33:45;;;;;;;8.23;3.10;;;16.40;99.90;;;;;;5002269;28;20261;-91
2021/08/03 13:36:18;;;;;;;6.97;2.80;;;16.50;99.90;;;;;;5004056;28;20210;-91
2021/08/03 13:38:49;;;;;;;5.73;2.93;;;16.50;99.90;;;;;;4998153;28;20234;-91
2021/08/03 13:41:21;;;;;;;6.17;2.80;;;16.60;99.90;;;;;;4997610;28;20240;-91
2021/08/03 13:43:52;;;;;;;7.07;2.73;;;16.60;99.90;;;;;;5000034;28;20213;-91
2021/08/03 13:46:24;;;;;;;7.07;2.70;;;16.70;99.90;;;;;;5000781;28;20250;-88
2021/08/03 13:48:55;;;;;;;5.80;3.00;;;16.60;99.90;;;;;;4998307;28;20214;-89
2021/08/03 13:51:29;;;;;;;7.03;3.00;;;16.70;99.90;;;;;;4997555;28;20269;-88
2021/08/03 13:54:02;;;;;;;6.83;3.50;;;16.70;99.90;;;;;;4997480;28;20645;-89
2021/08/03 13:56:33;;;;;;;7.77;2.73;;;16.70;99.90;;;;;;4981178;28;20230;-88
2021/08/03 13:59:05;;;;;;;6.80;2.40;;;16.80;99.90;;;;;;4997932;28;20210;-88
2021/08/03 14:01:36;;;;;;;8.37;2.60;;;16.80;99.90;;;;;;4996894;28;20206;-89
2021/08/03 14:04:08;;;;;;;7.60;2.80;;;16.80;99.90;;;;;;4998282;28;20202;-90
2021/08/03 14:06:42;;;;;;;7.77;2.50;;;16.90;99.90;;;;;;4982883;28;20257;-91
2021/08/03 14:09:14;;;;;;;4.57;2.80;;;16.90;99.90;;;;;;4978783;28;20278;-90
2021/08/03 14:11:45;;;;;;;6.37;2.57;;;16.90;99.90;;;;;;4978023;28;20234;-90
2021/08/03 14:14:17;;;;;;;5.83;2.70;;;16.90;99.90;;;;;;4982575;28;20293;-90
2021/08/03 14:16:55;;;;;;;9.40;2.87;;;16.90;99.90;;;;;;4965308;28;20226;-91
2021/08/03 14:19:26;;;;;;;9.27;3.00;;;16.90;99.90;;;;;;4962033;28;20717;-90
2021/08/03 14:22:00;;;;;;;5.33;2.80;;;17.00;99.90;;;;;;4979200;28;20646;-91
2021/08/03 14:24:33;;;;;;;7.87;2.80;;;17.00;99.90;;;;;;4981511;28;20232;-90
2021/08/03 14:27:06;;;;;;;7.53;3.03;;;17.00;99.90;;;;;;4978758;28;20218;-90
2021/08/03 14:29:38;;;;;;;8.77;2.80;;;17.00;99.90;;;;;;4978805;28;20211;-91
2021/08/03 14:32:10;;;;;;;9.07;3.10;;;17.00;99.90;;;;;;4978541;28;20647;-91
2021/08/03 14:34:42;;;;;;;8.40;2.87;;;17.00;99.90;;;;;;4962411;28;20247;-90
2021/08/03 14:37:15;;;;;;;8.10;2.43;;;17.10;99.90;;;;;;4980657;28;20265;-89